createdAt,value
2018-12-05T06:18:01.299Z,0.1
2018-12-05T06:20:01.066Z,0.2
2018-12-05T06:21:01.127Z,0.3
2018-12-05T06:23:01.239Z,0.4
2018-12-05T06:24:01.107Z,0.5
2018-12-05T06:26:06.108Z,0.7
2018-12-05T06:27:01.067Z,0.8
2018-12-05T06:28:01.241Z,0.9
2018-12-05T06:29:01.104Z,1.1
2018-12-05T06:30:01.105Z,1.3
2018-12-05T06:31:06.097Z,1.5
2018-12-05T06:32:01.107Z,1.7
2018-12-05T06:33:01.244Z,1.9
2018-12-05T06:34:01.071Z,2.2
2018-12-05T06:35:01.098Z,2.5
2018-12-05T06:36:06.071Z,2.9
2018-12-05T06:37:01.094Z,3.4
2018-12-05T06:38:01.308Z,3.9
2018-12-05T06:39:01.071Z,4.6
2018-12-05T06:40:01.070Z,5.3
2018-12-05T06:41:01.087Z,6.1
2018-12-05T06:42:01.097Z,7.1
2018-12-05T06:43:01.251Z,8.3
2018-12-05T06:44:01.105Z,9.8
2018-12-05T06:45:01.069Z,11.5
2018-12-05T06:46:01.128Z,13.5
2018-12-05T06:47:01.104Z,15.8
2018-12-05T06:48:01.244Z,18.6
2018-12-05T06:50:01.090Z,22.5
2018-12-05T06:51:12.119Z,27.0
2018-12-05T06:52:01.091Z,32.3
2018-12-05T06:53:01.058Z,38.4
2018-12-05T06:54:01.199Z,45.5
2018-12-05T06:55:06.097Z,53.7
2018-12-05T06:56:01.063Z,63.2
2018-12-05T06:57:01.093Z,74.1
2018-12-05T06:58:01.090Z,86.6
2018-12-05T06:59:01.234Z,100.8
2018-12-05T07:00:06.057Z,116.9
2018-12-05T07:01:01.090Z,135.2
2018-12-05T07:02:01.071Z,155.8
2018-12-05T07:03:01.059Z,178.9
2018-12-05T07:04:01.318Z,204.9
2018-12-05T07:05:01.061Z,233.3
2018-12-05T07:06:01.066Z,264.9
2018-12-05T07:07:01.098Z,300.1
2018-12-05T07:08:01.251Z,339.0
2018-12-05T07:09:01.232Z,382.0
2018-12-05T07:10:01.068Z,429.4
2018-12-05T07:11:01.098Z,481.4
2018-12-05T07:12:01.062Z,538.1
2018-12-05T07:13:01.098Z,600.1
2018-12-05T07:14:01.305Z,667.3
2018-12-05T07:15:01.069Z,740.1
2018-12-05T07:16:01.068Z,818.7
2018-12-05T07:17:01.103Z,903.4
2018-12-05T07:18:01.068Z,994.3
2018-12-05T07:19:01.210Z,1091.5
2018-12-05T07:20:01.101Z,1195.1
2018-12-05T07:21:01.101Z,1305.3
2018-12-05T07:22:01.075Z,1422.2
2018-12-05T07:23:01.071Z,1546.3
2018-12-05T07:25:01.050Z,1690.2
2018-12-05T07:26:01.051Z,1841.9
2018-12-05T07:27:01.054Z,2001.7
2018-12-05T07:28:01.083Z,2169.9
2018-12-05T07:29:01.230Z,2346.5
2018-12-05T07:30:01.055Z,2531.6
2018-12-05T07:31:01.086Z,2725.3
2018-12-05T07:32:01.084Z,2927.3
2018-12-05T07:33:01.093Z,3137.1
2018-12-05T07:34:01.232Z,3355.5
2018-12-05T07:35:01.081Z,3582.3
2018-12-05T07:36:01.120Z,3818.6
2018-12-05T07:37:01.146Z,4064.5
2018-12-05T07:38:01.089Z,4322.3
2018-12-05T07:39:01.233Z,4591.9
2018-12-05T07:40:01.091Z,4860.7
2018-12-05T07:41:01.242Z,5139.1
2018-12-05T07:42:01.092Z,5422.3
2018-12-05T07:43:01.062Z,5710.1
2018-12-05T07:44:01.268Z,6003.9
2018-12-05T07:45:01.082Z,6304.4
2018-12-05T07:46:02.185Z,6615.0
2018-12-05T07:47:01.061Z,6942.2
2018-12-05T07:48:01.061Z,7286.5
2018-12-05T07:49:01.226Z,7639.5
2018-12-05T07:50:01.090Z,7989.1
2018-12-05T07:51:01.062Z,8330.3
2018-12-05T07:52:01.097Z,8671.9
2018-12-05T07:53:01.095Z,9021.0
2018-12-05T07:54:01.229Z,9372.9
2018-12-05T07:55:01.060Z,9715.1
2018-12-05T07:56:01.090Z,10040.7
2018-12-05T07:57:01.094Z,10358.1
2018-12-05T07:58:01.171Z,10672.3
2018-12-05T07:59:01.245Z,10985.5
2018-12-05T08:00:01.068Z,11301.4
2018-12-05T08:01:01.068Z,11615.3
2018-12-05T08:02:01.131Z,11913.1
2018-12-05T08:03:01.837Z,12188.5
2018-12-05T08:04:01.573Z,12444.3
2018-12-05T08:05:06.106Z,12691.5
2018-12-05T08:06:01.063Z,12919.7
2018-12-05T08:07:01.101Z,13132.1
2018-12-05T08:08:01.104Z,13293.7
2018-12-05T08:09:01.263Z,13441.3
2018-12-05T08:10:01.066Z,13571.8
2018-12-05T08:11:01.094Z,13702.1
2018-12-05T08:12:01.065Z,13837.5
2018-12-05T08:13:01.097Z,13970.1
2018-12-05T08:14:01.344Z,14093.9
2018-12-05T08:15:01.090Z,14202.5
2018-12-05T08:16:01.066Z,14294.9
2018-12-05T08:17:01.069Z,14383.0
2018-12-05T08:18:01.100Z,14475.3
2018-12-05T08:19:01.273Z,14577.0
2018-12-05T08:20:01.099Z,14687.7
2018-12-05T08:21:01.066Z,14822.9
2018-12-05T08:22:01.096Z,14970.8
2018-12-05T08:23:01.097Z,15153.9
2018-12-05T08:24:01.276Z,15341.4
2018-12-05T08:25:01.067Z,15548.9
2018-12-05T08:27:01.088Z,15787.9
2018-12-05T08:28:01.089Z,16026.1
2018-12-05T08:29:01.226Z,16269.5
2018-12-05T08:30:01.049Z,16517.1
2018-12-05T08:31:01.050Z,16771.4
2018-12-05T08:32:01.078Z,17049.6
2018-12-05T08:33:01.999Z,17368.1
2018-12-05T08:34:01.267Z,17731.4
2018-12-05T08:35:01.079Z,18176.1
2018-12-05T08:36:01.046Z,18645.7
2018-12-05T08:37:01.055Z,19111.2
2018-12-05T08:38:01.052Z,19584.5
2018-12-05T08:39:01.252Z,20060.8
2018-12-05T08:40:01.056Z,20541.3
2018-12-05T08:41:01.051Z,21038.7
2018-12-05T08:42:01.084Z,21533.1
2018-12-05T08:43:01.055Z,22015.7
2018-12-05T08:44:01.202Z,22487.7
2018-12-05T08:45:01.089Z,22965.3
2018-12-05T08:46:02.192Z,23538.0
2018-12-05T08:47:01.095Z,24202.8
2018-12-05T08:48:01.059Z,24892.3
2018-12-05T08:49:01.272Z,25438.3
2018-12-05T08:50:01.096Z,25793.8
2018-12-05T08:51:01.058Z,26288.2
2018-12-05T08:52:01.089Z,26904.1
2018-12-05T08:53:01.059Z,27261.2
2018-12-05T08:54:01.292Z,27609.3
2018-12-05T08:55:01.203Z,28358.7
2018-12-05T08:56:01.059Z,29447.9
2018-12-05T08:57:01.057Z,30799.1
2018-12-05T08:58:01.060Z,32321.3
2018-12-05T08:59:01.252Z,33833.3
2018-12-05T09:00:01.156Z,35241.5
2018-12-05T09:01:01.064Z,36651.0
2018-12-05T09:02:01.095Z,38143.9
2018-12-05T09:03:01.063Z,39347.3
2018-12-05T09:04:01.273Z,40371.7
2018-12-05T09:05:01.069Z,41881.6
2018-12-05T09:06:01.066Z,43068.4
2018-12-05T09:07:01.067Z,43824.1
2018-12-05T09:08:01.069Z,44889.4
2018-12-05T09:09:01.304Z,45918.2
2018-12-05T09:10:01.097Z,46258.7
2018-12-05T09:12:01.080Z,46612.3
2018-12-05T09:13:01.051Z,46638.5
2018-12-05T09:14:01.265Z,45840.6
2018-12-05T09:15:01.090Z,44950.1
2018-12-05T09:16:01.086Z,44486.1
2018-12-05T09:17:01.093Z,44397.3
2018-12-05T09:18:01.090Z,44105.3
2018-12-05T09:19:01.198Z,44448.0
2018-12-05T09:20:01.088Z,45846.1
2018-12-05T09:21:01.061Z,46530.0
2018-12-05T09:22:01.060Z,47351.1
2018-12-05T09:23:01.061Z,48085.1
2018-12-05T09:24:01.225Z,48406.2
2018-12-05T09:25:01.060Z,49493.9
2018-12-05T09:26:01.056Z,51166.2
2018-12-05T09:27:01.092Z,52451.3
2018-12-05T09:28:01.060Z,53767.1
2018-12-05T09:29:01.242Z,54839.7
2018-12-05T09:30:01.096Z,56544.3
2018-12-05T09:31:01.066Z,58055.6
2018-12-05T09:32:01.097Z,58154.7
2018-12-05T09:33:01.096Z,57433.1
2018-12-05T09:34:01.273Z,56298.7
2018-12-05T09:35:01.077Z,54949.4
2018-12-05T09:36:01.061Z,53804.8
2018-12-05T09:37:01.092Z,53413.6
2018-12-05T09:38:02.119Z,54134.3
2018-12-05T09:39:01.271Z,54768.5
2018-12-05T09:40:01.087Z,53531.9
2018-12-05T09:41:01.063Z,51672.0
2018-12-05T09:42:01.103Z,50796.9
2018-12-05T09:43:01.078Z,50426.5
2018-12-05T09:44:01.239Z,50260.2
2018-12-05T09:45:01.098Z,49196.4
2018-12-05T09:46:01.099Z,48379.1
2018-12-05T09:47:01.100Z,49077.5
2018-12-05T09:48:01.100Z,51023.1
2018-12-05T09:49:01.302Z,52958.6
2018-12-05T09:50:01.067Z,54315.9
2018-12-05T09:51:02.105Z,55789.9
2018-12-05T09:52:01.103Z,56517.6
2018-12-05T09:54:01.241Z,56941.1
2018-12-05T09:55:01.102Z,58496.5
2018-12-05T09:56:01.101Z,60356.4
2018-12-05T09:57:01.071Z,61231.5
2018-12-05T09:58:01.072Z,61601.9
2018-12-05T09:59:01.257Z,62661.3
2018-12-05T10:00:01.077Z,64081.5
2018-12-05T10:01:01.071Z,65104.0
2018-12-05T10:02:01.077Z,65535.0
2018-12-05T10:15:01.093Z,65535.0
2018-12-05T10:30:01.057Z,65535.0
2018-12-05T10:38:01.065Z,65408.3
2018-12-05T10:45:01.074Z,65408.3
2018-12-05T10:53:01.162Z,65535.0
2018-12-05T11:00:01.090Z,65535.0
2018-12-05T11:15:01.107Z,65535.0
2018-12-05T11:27:01.097Z,64190.2
2018-12-05T11:28:01.119Z,62549.9
2018-12-05T11:29:01.261Z,60947.5
2018-12-05T11:30:01.090Z,59602.6
2018-12-05T11:31:01.096Z,58452.2
2018-12-05T11:32:01.098Z,57359.8
2018-12-05T11:33:06.068Z,56077.9
2018-12-05T11:34:01.235Z,54722.5
2018-12-05T11:35:01.068Z,53478.1
2018-12-05T11:39:01.239Z,53134.9
2018-12-05T11:40:01.073Z,52373.4
2018-12-05T11:41:01.097Z,51207.5
2018-12-05T11:42:01.067Z,51611.7
2018-12-05T11:44:01.218Z,53252.1
2018-12-05T11:45:01.052Z,54821.4
2018-12-05T11:46:01.056Z,56166.3
2018-12-05T11:47:01.083Z,57316.7
2018-12-05T11:48:06.088Z,58409.1
2018-12-05T11:49:01.221Z,59691.0
2018-12-05T11:50:01.054Z,61046.5
2018-12-05T11:51:01.054Z,62290.8
2018-12-05T11:55:01.231Z,62634.1
2018-12-05T11:56:01.062Z,62492.0
2018-12-05T11:57:01.061Z,62160.5
2018-12-05T11:58:01.086Z,61397.9
2018-12-05T11:59:02.343Z,59584.5
2018-12-05T12:00:01.296Z,57728.8
2018-12-05T12:01:01.089Z,56201.0
2018-12-05T12:02:01.058Z,55025.5
2018-12-05T12:03:01.061Z,53831.9
2018-12-05T12:04:01.089Z,52560.8
2018-12-05T12:05:01.231Z,50981.9
2018-12-05T12:06:01.069Z,49324.7
2018-12-05T12:07:01.090Z,48097.5
2018-12-05T12:08:01.083Z,47204.2
2018-12-05T12:09:01.058Z,46792.7
2018-12-05T12:10:01.283Z,46315.1
2018-12-05T12:11:01.085Z,47124.5
2018-12-05T12:12:01.058Z,47817.4
2018-12-05T12:13:01.092Z,48155.6
2018-12-05T12:14:01.061Z,48425.1
2018-12-05T12:15:01.238Z,49654.7
2018-12-05T12:16:01.066Z,50720.4
2018-12-05T12:17:06.055Z,50854.6
2018-12-05T12:18:01.058Z,52048.3
2018-12-05T12:19:01.093Z,53319.3
2018-12-05T12:20:01.227Z,54708.4
2018-12-05T12:21:06.158Z,56028.4
2018-12-05T12:22:01.092Z,56312.0
2018-12-05T12:23:01.117Z,56800.5
2018-12-05T12:24:01.057Z,57211.9
2018-12-05T12:25:03.861Z,57689.6
2018-12-05T12:26:01.121Z,57783.7
2018-12-05T12:27:01.092Z,58139.9
2018-12-05T12:28:01.092Z,59318.9
2018-12-05T12:29:01.061Z,60380.4
2018-12-05T12:30:01.239Z,59916.3
2018-12-05T12:31:06.105Z,59606.1
2018-12-05T12:32:01.103Z,60293.3
2018-12-05T12:33:02.692Z,59335.7
2018-12-05T12:34:01.065Z,57790.4
2018-12-05T12:35:01.239Z,56376.5
2018-12-05T12:36:06.105Z,55652.1
2018-12-05T12:37:01.092Z,56595.8
2018-12-05T12:38:02.000Z,57000.6
2018-12-05T12:39:01.098Z,56684.3
2018-12-05T12:40:01.552Z,56107.0
2018-12-05T12:42:01.098Z,56555.3
2018-12-05T12:43:01.071Z,56741.3
2018-12-05T12:44:01.096Z,57223.7
2018-12-05T12:45:01.232Z,58346.8
2018-12-05T12:46:06.109Z,59119.2
2018-12-05T12:47:01.068Z,59473.2
2018-12-05T12:48:01.099Z,60430.9
2018-12-05T12:49:01.070Z,61976.1
2018-12-05T12:51:01.281Z,63579.9
2018-12-05T12:52:01.051Z,63678.7
2018-12-05T12:53:01.060Z,62344.3
2018-12-05T12:54:06.060Z,60582.1
2018-12-05T12:55:01.078Z,59103.0
2018-12-05T12:56:01.225Z,58022.3
2018-12-05T12:57:01.083Z,56360.1
2018-12-05T12:58:01.054Z,54849.3
2018-12-05T12:59:01.089Z,53321.8
2018-12-05T13:00:01.084Z,51795.0
2018-12-05T13:01:01.226Z,50239.7
2018-12-05T13:02:01.055Z,48762.0
2018-12-05T13:03:01.064Z,47547.8
2018-12-05T13:04:01.062Z,46532.5
2018-12-05T13:05:06.056Z,45488.3
2018-12-05T13:06:01.256Z,44495.9
2018-12-05T13:07:01.057Z,44593.2
2018-12-05T13:08:01.053Z,44848.9
2018-12-05T13:09:01.088Z,45530.4
2018-12-05T13:10:01.062Z,46134.4
2018-12-05T13:11:01.254Z,46338.6
2018-12-05T13:12:01.085Z,46650.2
2018-12-05T13:13:01.060Z,46938.5
2018-12-05T13:14:01.054Z,47183.1
2018-12-05T13:15:01.086Z,47696.1
2018-12-05T13:16:01.365Z,48390.5
2018-12-05T13:17:01.067Z,49234.9
2018-12-05T13:18:01.057Z,50449.1
2018-12-05T13:19:01.093Z,51464.5
2018-12-05T13:20:01.096Z,52508.7
2018-12-05T13:21:01.200Z,53080.9
2018-12-05T13:22:01.064Z,53477.2
2018-12-05T13:23:01.089Z,54113.8
2018-12-05T13:24:01.119Z,54834.1
2018-12-05T13:25:01.058Z,55137.4
2018-12-05T13:26:01.264Z,55493.3
2018-12-05T13:27:01.092Z,56132.4
2018-12-05T13:28:01.091Z,56837.3
2018-12-05T13:29:01.092Z,57389.6
2018-12-05T13:30:01.093Z,57138.2
2018-12-05T13:31:01.266Z,56462.7
2018-12-05T13:32:01.096Z,55459.9
2018-12-05T13:33:01.063Z,53723.7
2018-12-05T13:34:01.097Z,51850.9
2018-12-05T13:35:01.089Z,49827.5
2018-12-05T13:36:01.236Z,48154.8
2018-12-05T13:37:01.094Z,46475.4
2018-12-05T13:38:01.186Z,44745.9
2018-12-05T13:39:01.087Z,42904.5
2018-12-05T13:40:01.075Z,41547.3
2018-12-05T13:41:01.260Z,40375.2
2018-12-05T13:42:01.091Z,38778.7
2018-12-05T13:43:01.082Z,36952.7
2018-12-05T13:44:01.100Z,35272.7
2018-12-05T13:45:01.090Z,34048.7
2018-12-05T13:46:01.260Z,33024.3
2018-12-05T13:47:01.103Z,32036.2
2018-12-05T13:48:01.094Z,31077.9
2018-12-05T13:49:01.066Z,30220.3
2018-12-05T13:51:01.295Z,29491.1
2018-12-05T13:52:01.053Z,28837.6
2018-12-05T13:53:01.054Z,28248.0
2018-12-05T13:54:01.052Z,27690.5
2018-12-05T13:55:01.079Z,27172.1
2018-12-05T13:56:02.985Z,26702.8
2018-12-05T13:57:01.054Z,26258.1
2018-12-05T13:58:01.106Z,25847.8
2018-12-05T13:59:01.084Z,25463.1
2018-12-05T14:00:01.054Z,25117.2
2018-12-05T14:01:01.231Z,24807.4
2018-12-05T14:02:07.645Z,24515.1
2018-12-05T14:03:01.085Z,24223.1
2018-12-05T14:04:01.056Z,23942.0
2018-12-05T14:05:01.083Z,23638.9
2018-12-05T14:06:01.256Z,23315.5
2018-12-05T14:07:01.122Z,22947.7
2018-12-05T14:08:01.085Z,22539.1
2018-12-05T14:09:02.182Z,22102.1
2018-12-05T14:10:01.090Z,21633.9
2018-12-05T14:11:01.224Z,21133.1
2018-12-05T14:12:01.052Z,20605.1
2018-12-05T14:13:01.084Z,20043.3
2018-12-05T14:14:01.061Z,19444.0
2018-12-05T14:15:01.084Z,18825.3
2018-12-05T14:16:01.274Z,18200.7
2018-12-05T14:17:01.254Z,17576.9
2018-12-05T14:18:06.093Z,16966.7
2018-12-05T14:19:01.093Z,16374.1
2018-12-05T14:20:01.062Z,15803.1
2018-12-05T14:21:01.456Z,15237.5
2018-12-05T14:22:01.054Z,14674.7
2018-12-05T14:23:06.136Z,14111.7
2018-12-05T14:24:01.061Z,13535.7
2018-12-05T14:25:01.088Z,12954.1
2018-12-05T14:26:01.227Z,12373.7
2018-12-05T14:27:01.065Z,11798.8
2018-12-05T14:28:01.135Z,11242.2
2018-12-05T14:29:01.063Z,10716.4
2018-12-05T14:30:01.363Z,10222.5
2018-12-05T14:31:01.245Z,9760.3
2018-12-05T14:32:01.118Z,9334.9
2018-12-05T14:33:01.135Z,8942.3
2018-12-05T14:34:01.094Z,8574.4
2018-12-05T14:35:01.093Z,8226.7
2018-12-05T14:36:01.227Z,7900.1
2018-12-05T14:37:01.061Z,7592.8
2018-12-05T14:38:01.131Z,7302.5
2018-12-05T14:39:01.055Z,7028.1
2018-12-05T14:40:01.063Z,6765.7
2018-12-05T14:41:01.240Z,6512.2
2018-12-05T14:42:01.063Z,6264.5
2018-12-05T14:43:01.132Z,6020.9
2018-12-05T14:44:01.103Z,5780.6
2018-12-05T14:45:01.100Z,5543.5
2018-12-05T14:46:01.203Z,5310.7
2018-12-05T14:47:01.064Z,5084.1
2018-12-05T14:48:01.127Z,4863.3
2018-12-05T14:49:01.091Z,4649.1
2018-12-05T14:50:01.104Z,4440.9
2018-12-05T14:51:01.236Z,4238.3
2018-12-05T14:52:01.091Z,4041.6
2018-12-05T14:53:01.124Z,3851.1
2018-12-05T14:54:01.066Z,3667.4
2018-12-05T14:55:01.065Z,3491.5
2018-12-05T14:56:01.229Z,3324.1
2018-12-05T14:57:01.068Z,3165.2
2018-12-05T14:58:01.137Z,3014.4
2018-12-05T14:59:01.063Z,2870.5
2018-12-05T15:00:01.070Z,2732.1
2018-12-05T15:01:01.243Z,2598.9
2018-12-05T15:02:01.102Z,2469.1
2018-12-05T15:04:01.108Z,2334.0
2018-12-05T15:05:03.574Z,2201.1
2018-12-05T15:06:01.247Z,2070.7
2018-12-05T15:07:01.049Z,1943.3
2018-12-05T15:08:01.057Z,1819.5
2018-12-05T15:09:06.090Z,1699.3
2018-12-05T15:10:01.087Z,1582.9
2018-12-05T15:11:01.232Z,1470.1
2018-12-05T15:12:01.045Z,1360.6
2018-12-05T15:13:01.081Z,1254.4
2018-12-05T15:14:01.054Z,1151.1
2018-12-05T15:15:01.049Z,1050.6
2018-12-05T15:16:01.231Z,953.3
2018-12-05T15:17:01.049Z,859.8
2018-12-05T15:18:01.054Z,770.7
2018-12-05T15:19:01.082Z,695.0
2018-12-05T15:20:01.088Z,625.1
2018-12-05T15:21:01.236Z,560.9
2018-12-05T15:22:01.079Z,502.1
2018-12-05T15:23:01.047Z,448.1
2018-12-05T15:24:01.091Z,398.9
2018-12-05T15:25:01.083Z,353.9
2018-12-05T15:26:01.327Z,312.9
2018-12-05T15:27:01.086Z,275.7
2018-12-05T15:28:01.091Z,242.0
2018-12-05T15:29:01.084Z,211.7
2018-12-05T15:30:01.121Z,184.7
2018-12-05T15:31:01.225Z,160.7
2018-12-05T15:32:01.050Z,139.5
2018-12-05T15:33:01.094Z,120.8
2018-12-05T15:34:01.056Z,104.5
2018-12-05T15:35:01.091Z,90.3
2018-12-05T15:36:01.232Z,77.9
2018-12-05T15:37:01.088Z,67.3
2018-12-05T15:38:01.062Z,58.1
2018-12-05T15:39:01.092Z,50.1
2018-12-05T15:40:01.086Z,43.3
2018-12-05T15:41:01.232Z,37.4
2018-12-05T15:42:01.061Z,32.3
2018-12-05T15:43:01.114Z,27.9
2018-12-05T15:44:01.059Z,24.1
2018-12-05T15:45:01.062Z,20.8
2018-12-05T15:46:01.226Z,17.9
2018-12-05T15:47:01.086Z,15.5
2018-12-05T15:48:01.157Z,13.3
2018-12-05T15:49:01.092Z,11.5
2018-12-05T15:50:01.095Z,9.9
2018-12-05T15:51:01.207Z,8.5
2018-12-05T15:52:06.092Z,7.3
2018-12-05T15:53:01.058Z,6.3
2018-12-05T15:54:01.099Z,5.4
2018-12-05T15:55:01.075Z,4.6
2018-12-05T15:56:01.200Z,3.9
2018-12-05T15:57:09.782Z,3.4
2018-12-05T15:58:01.098Z,2.9
2018-12-05T15:59:01.096Z,2.5
2018-12-05T16:00:01.095Z,2.2
2018-12-05T16:01:01.421Z,1.9
2018-12-05T16:02:06.107Z,1.7
2018-12-05T16:03:01.097Z,1.4
2018-12-05T16:04:01.067Z,1.2
2018-12-05T16:05:01.230Z,1.0
2018-12-05T16:07:01.196Z,0.9
2018-12-05T16:08:01.048Z,0.7
2018-12-05T16:09:01.082Z,0.6
2018-12-05T16:10:01.051Z,0.5
2018-12-05T16:11:01.053Z,0.4
2018-12-05T16:12:01.222Z,0.3
2018-12-05T16:14:01.052Z,0.2
2018-12-05T16:15:01.056Z,0.1
